createdAt,value
2018-06-19T00:00:53.968Z,91.30
2018-06-19T00:03:22.281Z,91.40
2018-06-19T00:05:50.639Z,91.70
2018-06-19T00:08:19.011Z,91.40
2018-06-19T00:10:47.329Z,91.40
2018-06-19T00:13:15.677Z,91.40
2018-06-19T00:15:44.029Z,91.40
2018-06-19T00:18:19.032Z,91.40
2018-06-19T00:20:47.429Z,91.30
2018-06-19T00:23:15.924Z,91.30
2018-06-19T00:25:44.304Z,91.30
2018-06-19T00:28:12.660Z,91.30
2018-06-19T00:30:40.980Z,91.30
2018-06-19T00:35:37.365Z,91.20
2018-06-19T00:38:05.717Z,91.10
2018-06-19T00:40:34.079Z,91.10
2018-06-19T00:43:02.439Z,91.00
2018-06-19T00:45:30.845Z,91.00
2018-06-19T00:47:59.176Z,91.00
2018-06-19T00:50:27.556Z,91.00
2018-06-19T00:52:56.037Z,91.00
2018-06-19T00:55:24.348Z,91.00
2018-06-19T00:57:52.684Z,91.00
2018-06-19T01:00:21.098Z,91.00
2018-06-19T01:02:49.423Z,91.10
2018-06-19T01:05:17.752Z,91.00
2018-06-19T01:07:46.060Z,91.00
2018-06-19T01:10:14.393Z,91.10
2018-06-19T01:12:42.712Z,91.20
2018-06-19T01:15:11.035Z,91.20
2018-06-19T01:17:39.388Z,91.20
2018-06-19T01:20:08.238Z,91.70
2018-06-19T01:22:36.969Z,91.30
2018-06-19T01:25:05.395Z,91.40
2018-06-19T01:27:33.686Z,91.40
2018-06-19T01:30:01.982Z,91.40
2018-06-19T01:32:30.320Z,91.70
2018-06-19T01:34:58.661Z,91.50
2018-06-19T01:37:27.032Z,91.50
2018-06-19T01:39:55.657Z,91.50
2018-06-19T01:42:23.970Z,91.60
2018-06-19T01:44:52.331Z,91.70
2018-06-19T01:49:48.743Z,91.80
2018-06-19T01:52:17.059Z,91.80
2018-06-19T01:54:45.405Z,91.80
2018-06-19T01:57:13.712Z,91.70
2018-06-19T02:02:10.315Z,91.80
2018-06-19T02:04:38.691Z,91.70
2018-06-19T02:07:07.020Z,91.80
2018-06-19T02:09:35.371Z,91.90
2018-06-19T02:12:03.676Z,91.90
2018-06-19T02:14:31.997Z,91.90
2018-06-19T02:17:00.359Z,92.00
2018-06-19T02:19:28.636Z,92.10
2018-06-19T02:21:56.975Z,92.10
2018-06-19T02:24:25.316Z,92.10
2018-06-19T02:26:53.620Z,92.10
2018-06-19T02:29:21.944Z,92.20
2018-06-19T02:31:50.249Z,92.20
2018-06-19T02:34:18.652Z,92.20
2018-06-19T02:36:47.031Z,92.20
2018-06-19T02:39:15.360Z,92.20
2018-06-19T02:41:43.717Z,92.20
2018-06-19T02:44:12.044Z,92.40
2018-06-19T02:46:40.342Z,92.10
2018-06-19T02:49:08.637Z,92.00
2018-06-19T02:51:37.000Z,92.10
2018-06-19T02:54:05.364Z,92.00
2018-06-19T02:56:33.677Z,92.00
2018-06-19T02:59:01.978Z,91.90
2018-06-19T03:01:30.328Z,91.90
2018-06-19T03:03:58.608Z,92.20
2018-06-19T03:06:26.936Z,91.90
2018-06-19T03:08:55.288Z,91.70
2018-06-19T03:11:23.608Z,91.70
2018-06-19T03:13:52.737Z,91.60
2018-06-19T03:18:49.139Z,91.60
2018-06-19T03:21:17.491Z,91.50
2018-06-19T03:23:45.997Z,91.40
2018-06-19T03:26:14.328Z,91.40
2018-06-19T03:28:42.659Z,91.40
2018-06-19T03:31:10.972Z,91.30
2018-06-19T03:33:39.495Z,91.30
2018-06-19T03:36:07.964Z,91.20
2018-06-19T03:38:36.280Z,91.20
2018-06-19T03:41:05.001Z,91.10
2018-06-19T03:43:33.307Z,91.30
2018-06-19T03:46:01.592Z,91.00
2018-06-19T03:48:29.924Z,90.90
2018-06-19T03:50:58.309Z,90.90
2018-06-19T03:53:26.656Z,90.80
2018-06-19T03:55:55.068Z,90.80
2018-06-19T03:58:23.392Z,90.80
2018-06-19T04:00:51.803Z,90.70
2018-06-19T04:03:20.236Z,90.70
2018-06-19T04:05:48.777Z,90.70
2018-06-19T04:08:17.236Z,90.70
2018-06-19T04:10:45.615Z,90.70
2018-06-19T04:13:13.934Z,90.60
2018-06-19T04:15:42.271Z,90.60
2018-06-19T04:18:10.579Z,90.60
2018-06-19T04:20:38.919Z,90.60
2018-06-19T04:23:07.376Z,90.60
2018-06-19T04:25:35.692Z,90.40
2018-06-19T04:28:04.011Z,90.40
2018-06-19T04:30:32.356Z,90.40
2018-06-19T04:33:01.507Z,90.30
2018-06-19T04:35:29.832Z,90.30
2018-06-19T04:37:58.186Z,90.20
2018-06-19T04:40:26.517Z,90.20
2018-06-19T04:42:54.859Z,90.20
2018-06-19T04:45:23.274Z,90.10
2018-06-19T04:47:51.567Z,90.00
2018-06-19T04:50:19.931Z,90.00
2018-06-19T04:52:48.275Z,89.80
2018-06-19T04:55:16.576Z,89.70
2018-06-19T04:57:44.956Z,89.60
2018-06-19T05:00:13.375Z,89.60
2018-06-19T05:02:41.743Z,89.60
2018-06-19T05:05:10.048Z,89.40
2018-06-19T05:10:06.616Z,89.10
2018-06-19T05:15:03.024Z,88.70
2018-06-19T05:17:31.339Z,88.70
2018-06-19T05:19:59.669Z,88.50
2018-06-19T05:22:28.058Z,88.50
2018-06-19T05:24:56.392Z,88.50
2018-06-19T05:27:24.748Z,88.40
2018-06-19T05:29:53.136Z,88.30
2018-06-19T05:32:21.470Z,88.20
2018-06-19T05:34:49.752Z,87.90
2018-06-19T05:37:18.149Z,87.70
2018-06-19T05:39:46.472Z,87.20
2018-06-19T05:42:14.786Z,87.00
2018-06-19T05:44:43.171Z,87.10
2018-06-19T05:47:11.571Z,87.10
2018-06-19T05:52:08.087Z,86.40
2018-06-19T05:54:36.428Z,86.30
2018-06-19T05:57:04.732Z,85.80
2018-06-19T05:59:33.170Z,85.60
2018-06-19T06:02:01.505Z,85.60
2018-06-19T06:04:29.857Z,85.70
2018-06-19T06:06:58.168Z,86.30
2018-06-19T06:09:27.128Z,85.30
2018-06-19T06:11:55.412Z,85.20
2018-06-19T06:14:23.721Z,85.00
2018-06-19T06:16:52.241Z,84.90
2018-06-19T06:19:20.584Z,84.90
2018-06-19T06:24:16.957Z,84.60
2018-06-19T06:26:45.303Z,84.30
2018-06-19T06:29:13.651Z,84.10
2018-06-19T06:31:41.999Z,84.10
2018-06-19T06:34:10.320Z,83.60
2018-06-19T06:36:38.704Z,83.30
2018-06-19T06:39:07.866Z,83.40
2018-06-19T06:41:36.368Z,83.00
2018-06-19T06:44:04.763Z,83.10
2018-06-19T06:46:33.170Z,82.70
2018-06-19T06:49:01.497Z,82.50
2018-06-19T06:51:29.836Z,82.10
2018-06-19T06:53:58.159Z,82.10
2018-06-19T06:56:26.527Z,82.20
2018-06-19T06:58:54.870Z,81.80
2018-06-19T07:01:23.208Z,81.70
2018-06-19T07:03:51.549Z,81.40
2018-06-19T07:06:19.883Z,81.10
2018-06-19T07:08:48.259Z,81.10
2018-06-19T07:11:16.699Z,80.60
2018-06-19T07:13:45.064Z,80.10
2018-06-19T07:16:13.405Z,79.80
2018-06-19T07:18:41.762Z,79.80
2018-06-19T07:21:10.125Z,79.10
2018-06-19T07:23:38.459Z,78.30
2018-06-19T07:26:06.874Z,78.10
2018-06-19T07:28:35.172Z,78.10
2018-06-19T07:31:03.517Z,77.80
2018-06-19T07:33:31.820Z,77.40
2018-06-19T07:36:00.228Z,77.80
2018-06-19T07:38:28.551Z,77.80
2018-06-19T07:40:56.932Z,77.60
2018-06-19T07:43:27.059Z,77.00
2018-06-19T07:45:55.352Z,77.10
2018-06-19T07:48:23.681Z,77.10
2018-06-19T07:50:52.038Z,77.10
2018-06-19T07:53:20.416Z,77.10
2018-06-19T07:55:48.779Z,77.40
2018-06-19T07:58:17.123Z,77.60
2018-06-19T08:00:45.433Z,77.70
2018-06-19T08:03:13.847Z,77.30
2018-06-19T08:05:42.184Z,76.70
2018-06-19T08:08:10.478Z,76.10
2018-06-19T08:10:38.831Z,75.40
2018-06-19T08:13:07.112Z,75.50
2018-06-19T08:15:35.440Z,75.50
2018-06-19T08:18:03.792Z,75.40
2018-06-19T08:20:32.132Z,75.50
2018-06-19T08:23:00.411Z,75.60
2018-06-19T08:25:28.724Z,75.70
2018-06-19T08:30:25.097Z,75.80
2018-06-19T08:32:53.397Z,75.80
2018-06-19T08:35:21.756Z,75.90
2018-06-19T08:37:50.114Z,75.60
2018-06-19T08:40:18.455Z,75.40
2018-06-19T08:42:46.807Z,75.60
2018-06-19T08:45:15.156Z,75.30
2018-06-19T08:47:43.480Z,75.70
2018-06-19T08:50:11.901Z,75.40
2018-06-19T08:52:40.258Z,75.40
2018-06-19T08:55:08.641Z,74.80
2018-06-19T08:57:37.022Z,74.30
2018-06-19T09:00:05.464Z,74.40
2018-06-19T09:02:34.321Z,74.60
2018-06-19T09:05:02.756Z,74.90
2018-06-19T09:09:59.300Z,75.90
2018-06-19T09:12:27.755Z,76.40
2018-06-19T09:14:56.060Z,76.80
2018-06-19T09:17:24.535Z,77.40
2018-06-19T09:19:52.828Z,78.90
2018-06-19T09:24:49.279Z,79.10
2018-06-19T09:27:17.636Z,79.40
2018-06-19T09:29:45.992Z,79.70
2018-06-19T09:32:14.310Z,79.80
2018-06-19T09:34:42.666Z,80.20
2018-06-19T09:37:10.979Z,80.40
2018-06-19T09:42:07.521Z,81.60
2018-06-19T09:44:36.488Z,82.40
2018-06-19T09:47:04.940Z,83.10
2018-06-19T09:49:33.168Z,83.60
2018-06-19T09:52:01.581Z,84.10
2018-06-19T09:54:29.961Z,84.70
2018-06-19T09:56:58.384Z,85.40
2018-06-19T09:59:26.777Z,85.40
2018-06-19T10:01:55.199Z,85.70
2018-06-19T10:04:23.536Z,85.90
2018-06-19T10:06:51.875Z,86.30
2018-06-19T10:09:20.256Z,86.40
2018-06-19T10:11:48.660Z,86.30
2018-06-19T10:14:17.040Z,86.20
2018-06-19T10:16:45.416Z,86.20
2018-06-19T10:19:13.783Z,86.20
2018-06-19T10:21:42.258Z,86.10
2018-06-19T10:24:10.595Z,86.40
2018-06-19T10:26:39.016Z,86.60
2018-06-19T10:29:07.351Z,86.90
2018-06-19T10:31:35.680Z,87.30
2018-06-19T10:34:04.025Z,87.80
2018-06-19T10:36:32.384Z,88.00
2018-06-19T10:39:00.728Z,88.10
2018-06-19T10:41:29.085Z,88.30
2018-06-19T10:43:57.435Z,88.30
2018-06-19T10:46:25.815Z,88.00
2018-06-19T10:48:54.156Z,87.50
2018-06-19T10:51:22.502Z,87.10
2018-06-19T10:53:50.895Z,86.30
2018-06-19T10:56:19.350Z,85.70
2018-06-19T10:58:47.688Z,85.40
2018-06-19T11:01:16.033Z,85.90
2018-06-19T11:03:44.346Z,84.70
2018-06-19T11:06:12.668Z,84.60
2018-06-19T11:08:41.656Z,84.80
2018-06-19T11:11:09.976Z,84.80
2018-06-19T11:13:39.156Z,84.80
2018-06-19T11:16:07.569Z,84.20
2018-06-19T11:18:35.905Z,82.00
2018-06-19T11:23:32.272Z,78.30
2018-06-19T11:26:00.700Z,77.30
2018-06-19T11:28:30.937Z,77.20
2018-06-19T11:30:59.372Z,76.90
2018-06-19T11:33:27.748Z,75.70
2018-06-19T11:38:24.111Z,72.10
2018-06-19T11:40:52.480Z,70.80
2018-06-19T11:43:20.844Z,69.50
2018-06-19T11:45:49.200Z,69.10
2018-06-19T11:48:17.575Z,68.90
2018-06-19T11:50:45.948Z,68.80
2018-06-19T11:53:14.285Z,68.20
2018-06-19T11:55:42.794Z,68.70
2018-06-19T11:58:11.307Z,69.60
2018-06-19T12:00:39.776Z,70.60
2018-06-19T12:03:08.127Z,70.60
2018-06-19T12:05:37.884Z,71.00
2018-06-19T12:08:06.248Z,71.20
2018-06-19T12:10:34.612Z,71.50
2018-06-19T12:13:02.969Z,71.70
2018-06-19T12:15:31.393Z,71.90
2018-06-19T12:17:59.762Z,72.30
2018-06-19T12:20:28.112Z,72.30
2018-06-19T12:22:56.430Z,72.40
2018-06-19T12:25:24.820Z,72.30
2018-06-19T12:27:53.203Z,71.80
2018-06-19T12:30:21.648Z,72.10
2018-06-19T12:32:50.070Z,71.90
2018-06-19T12:35:18.395Z,72.10
2018-06-19T12:37:46.726Z,70.70
2018-06-19T12:40:15.259Z,68.70
2018-06-19T12:42:43.644Z,67.00
2018-06-19T12:45:12.020Z,66.20
2018-06-19T12:47:40.339Z,66.00
2018-06-19T12:53:02.375Z,66.80
2018-06-19T12:55:42.048Z,67.50
2018-06-19T12:58:10.428Z,68.30
2018-06-19T13:00:38.828Z,68.90
2018-06-19T13:03:18.328Z,69.00
2018-06-19T13:05:57.939Z,69.30
2018-06-19T13:08:26.343Z,69.50
2018-06-19T13:10:54.966Z,69.90
2018-06-19T13:13:34.648Z,70.00
2018-06-19T13:16:03.105Z,69.80
2018-06-19T13:18:43.326Z,69.90
2018-06-19T13:21:11.712Z,70.30
2018-06-19T13:23:40.191Z,70.10
2018-06-19T13:26:08.600Z,70.50
2018-06-19T13:29:52.602Z,70.30
2018-06-19T13:32:21.031Z,70.20
2018-06-19T13:34:49.366Z,69.60
2018-06-19T13:37:17.872Z,69.10
2018-06-19T13:39:46.749Z,68.60
2018-06-19T13:42:30.156Z,68.00
2018-06-19T13:45:01.359Z,67.80
2018-06-19T13:47:29.988Z,66.80
2018-06-19T13:49:58.385Z,66.30
2018-06-19T13:52:26.720Z,65.70
2018-06-19T13:57:06.790Z,64.80
2018-06-19T13:59:35.087Z,62.90
2018-06-19T14:02:03.429Z,62.20
2018-06-19T14:04:32.767Z,61.60
2018-06-19T14:07:01.527Z,59.70
2018-06-19T14:09:44.612Z,59.60
2018-06-19T14:12:30.419Z,59.70
2018-06-19T14:14:58.768Z,60.10
2018-06-19T14:17:27.055Z,60.60
2018-06-19T14:19:55.731Z,61.10
2018-06-19T14:22:25.263Z,61.10
2018-06-19T14:24:53.580Z,61.90
2018-06-19T14:27:22.121Z,62.40
2018-06-19T14:29:50.459Z,62.60
2018-06-19T14:32:19.221Z,62.70
2018-06-19T14:34:47.532Z,63.00
2018-06-19T14:37:15.875Z,61.90
2018-06-19T14:39:44.204Z,61.00
2018-06-19T14:42:12.920Z,60.10
2018-06-19T14:44:41.284Z,59.70
2018-06-19T14:47:09.603Z,59.40
2018-06-19T14:49:37.921Z,59.70
2018-06-19T14:52:06.334Z,60.50
2018-06-19T14:54:34.647Z,60.80
2018-06-19T14:57:03.027Z,61.40
2018-06-19T14:59:31.332Z,61.80
2018-06-19T15:01:59.664Z,62.60
2018-06-19T15:04:27.965Z,62.60
2018-06-19T15:09:24.354Z,62.60
2018-06-19T15:11:52.704Z,62.60
2018-06-19T15:14:21.045Z,62.50
2018-06-19T15:16:49.362Z,62.80
2018-06-19T15:19:17.708Z,63.10
2018-06-19T15:21:46.243Z,63.30
2018-06-19T15:24:14.588Z,63.90
2018-06-19T15:26:42.921Z,63.70
2018-06-19T15:29:11.243Z,63.90
2018-06-19T15:31:39.705Z,64.10
2018-06-19T15:34:08.240Z,64.10
2018-06-19T15:36:36.631Z,64.40
2018-06-19T15:39:08.126Z,64.60
2018-06-19T15:41:36.488Z,64.40
2018-06-19T15:44:05.141Z,64.00
2018-06-19T15:46:33.527Z,63.90
2018-06-19T15:49:01.932Z,64.20
2018-06-19T15:51:30.578Z,64.00
2018-06-19T15:54:07.962Z,63.40
2018-06-19T15:56:36.348Z,63.40
2018-06-19T15:59:04.687Z,63.50
2018-06-19T16:01:33.098Z,62.90
2018-06-19T16:04:01.393Z,62.80
2018-06-19T16:06:29.787Z,62.30
2018-06-19T16:08:58.032Z,62.20
2018-06-19T16:11:26.356Z,62.30
2018-06-19T16:13:54.696Z,62.20
2018-06-19T16:16:23.045Z,61.70
2018-06-19T16:18:51.312Z,61.20
2018-06-19T16:21:19.997Z,61.10
2018-06-19T16:23:48.251Z,60.40
2018-06-19T16:26:16.541Z,60.40
2018-06-19T16:28:44.907Z,60.00
2018-06-19T16:31:13.187Z,59.80
2018-06-19T16:36:09.536Z,60.40
2018-06-19T16:38:37.849Z,60.10
2018-06-19T16:41:06.301Z,60.10
2018-06-19T16:46:02.615Z,60.10
2018-06-19T16:48:30.939Z,60.30
2018-06-19T16:50:59.320Z,60.40
2018-06-19T16:53:27.628Z,60.00
2018-06-19T16:55:55.924Z,60.10
2018-06-19T16:58:24.299Z,60.10
2018-06-19T17:00:52.625Z,60.40
2018-06-19T17:03:20.976Z,60.50
2018-06-19T17:08:36.097Z,60.90
2018-06-19T17:11:04.371Z,60.60
2018-06-19T17:13:32.588Z,60.40
2018-06-19T17:16:00.851Z,60.10
2018-06-19T17:18:29.121Z,60.00
2018-06-19T17:20:57.376Z,60.10
2018-06-19T17:23:25.660Z,59.90
2018-06-19T17:25:53.928Z,60.00
2018-06-19T17:28:22.202Z,60.00
2018-06-19T17:30:50.409Z,60.10
2018-06-19T17:33:18.656Z,60.30
2018-06-19T17:35:46.907Z,60.30
2018-06-19T17:38:15.116Z,60.60
2018-06-19T17:40:43.397Z,60.80
2018-06-19T17:43:11.640Z,60.80
2018-06-19T17:45:39.921Z,61.00
2018-06-19T17:48:08.185Z,60.80
2018-06-19T17:50:36.433Z,60.70
2018-06-19T17:53:04.664Z,60.70
2018-06-19T17:55:32.937Z,60.70
2018-06-19T17:58:01.188Z,60.80
2018-06-19T18:00:29.521Z,60.90
2018-06-19T18:02:57.751Z,61.30
2018-06-19T18:05:25.988Z,61.30
2018-06-19T18:07:54.253Z,61.40
2018-06-19T18:10:22.516Z,61.50
2018-06-19T18:12:50.800Z,61.40
2018-06-19T18:15:19.064Z,61.30
2018-06-19T18:17:47.360Z,61.70
2018-06-19T18:20:15.620Z,61.70
2018-06-19T18:22:43.892Z,61.70
2018-06-19T18:25:12.136Z,61.80
2018-06-19T18:27:40.429Z,61.90
2018-06-19T18:30:08.681Z,62.00
2018-06-19T18:32:37.167Z,62.30
2018-06-19T18:35:05.442Z,62.40
2018-06-19T18:37:33.754Z,62.50
2018-06-19T18:40:02.065Z,62.60
2018-06-19T18:44:58.554Z,62.80
2018-06-19T18:47:26.790Z,63.10
2018-06-19T18:49:55.052Z,63.40
2018-06-19T18:52:23.295Z,63.70
2018-06-19T18:54:51.588Z,63.90
2018-06-19T18:57:19.857Z,63.90
2018-06-19T18:59:48.105Z,64.00
2018-06-19T19:02:16.691Z,64.30
2018-06-19T19:04:45.001Z,64.40
2018-06-19T19:07:13.248Z,64.50
2018-06-19T19:09:45.717Z,65.00
2018-06-19T19:12:13.956Z,65.20
2018-06-19T19:14:47.751Z,66.10
2018-06-19T19:17:21.509Z,66.20
2018-06-19T19:19:49.880Z,65.90
2018-06-19T19:22:18.169Z,66.10
2018-06-19T19:24:46.400Z,66.10
2018-06-19T19:27:20.086Z,66.20
2018-06-19T19:29:49.170Z,66.40
2018-06-19T19:32:18.573Z,66.50
2018-06-19T19:37:42.530Z,67.10
2018-06-19T19:40:10.743Z,67.20
2018-06-19T19:42:39.036Z,67.40
2018-06-19T19:45:07.272Z,67.50
2018-06-19T19:47:40.811Z,67.60
2018-06-19T19:50:09.295Z,67.90
2018-06-19T19:52:37.541Z,68.00
2018-06-19T19:55:05.837Z,68.30
2018-06-19T19:57:39.532Z,68.50
2018-06-19T20:00:09.109Z,68.80
2018-06-19T20:02:37.427Z,69.00
2018-06-19T20:05:05.697Z,69.20
2018-06-19T20:07:33.970Z,69.40
2018-06-19T20:10:02.252Z,69.50
2018-06-19T20:12:30.522Z,69.70
2018-06-19T20:14:58.800Z,69.80
2018-06-19T20:17:27.075Z,70.30
2018-06-19T20:19:55.353Z,70.50
2018-06-19T20:22:23.673Z,70.70
2018-06-19T20:24:51.912Z,70.80
2018-06-19T20:27:20.237Z,71.10
2018-06-19T20:29:48.679Z,71.50
2018-06-19T20:32:17.009Z,71.60
2018-06-19T20:34:45.295Z,71.70
2018-06-19T20:37:13.953Z,72.00
2018-06-19T20:39:42.232Z,72.00
2018-06-19T20:42:10.508Z,72.50
2018-06-19T20:44:38.769Z,72.80
2018-06-19T20:47:07.110Z,72.70
2018-06-19T20:49:35.389Z,73.00
2018-06-19T20:52:03.632Z,73.30
2018-06-19T20:54:32.000Z,73.40
2018-06-19T20:57:00.221Z,73.80
2018-06-19T20:59:28.527Z,73.90
2018-06-19T21:01:56.803Z,74.20
2018-06-19T21:04:25.536Z,74.30
2018-06-19T21:06:53.837Z,74.60
2018-06-19T21:09:22.113Z,74.70
2018-06-19T21:11:56.872Z,74.90
2018-06-19T21:14:25.154Z,75.00
2018-06-19T21:16:53.412Z,75.30
2018-06-19T21:19:21.700Z,75.30
2018-06-19T21:21:49.964Z,75.60
2018-06-19T21:24:18.263Z,75.70
2018-06-19T21:26:46.501Z,76.00
2018-06-19T21:29:14.752Z,76.30
2018-06-19T21:31:43.018Z,76.50
2018-06-19T21:34:11.248Z,76.60
2018-06-19T21:36:39.581Z,76.80
2018-06-19T21:39:08.874Z,76.90
2018-06-19T21:41:37.183Z,77.00
2018-06-19T21:44:05.563Z,77.20
2018-06-19T21:46:33.845Z,77.50
2018-06-19T21:49:02.089Z,77.60
2018-06-19T21:51:30.381Z,77.90
2018-06-19T21:53:58.599Z,78.00
2018-06-19T21:56:26.947Z,78.00
2018-06-19T21:58:55.206Z,78.00
2018-06-19T22:01:23.488Z,78.30
2018-06-19T22:03:51.880Z,78.40
2018-06-19T22:06:20.185Z,78.60
2018-06-19T22:08:53.364Z,78.80
2018-06-19T22:11:22.851Z,79.10
2018-06-19T22:13:51.147Z,79.10
2018-06-19T22:16:19.397Z,79.30
2018-06-19T22:23:43.909Z,80.20
2018-06-19T22:26:12.176Z,80.40
2018-06-19T22:28:40.459Z,80.30
2018-06-19T22:31:08.817Z,80.30
2018-06-19T22:33:37.157Z,80.50
2018-06-19T22:36:05.383Z,80.60
2018-06-19T22:38:33.715Z,80.80
2018-06-19T22:41:02.065Z,81.00
2018-06-19T22:43:30.339Z,81.10
2018-06-19T22:45:58.642Z,81.20
2018-06-19T22:48:26.868Z,81.30
2018-06-19T22:50:55.173Z,81.40
2018-06-19T22:53:23.417Z,81.50
2018-06-19T22:55:51.653Z,81.70
2018-06-19T22:58:19.902Z,81.90
2018-06-19T23:00:48.164Z,82.10
2018-06-19T23:05:44.623Z,82.40
2018-06-19T23:08:12.928Z,82.50
2018-06-19T23:10:41.308Z,82.60
2018-06-19T23:13:09.556Z,82.70
2018-06-19T23:15:37.808Z,82.90
2018-06-19T23:18:06.076Z,82.90
2018-06-19T23:20:34.412Z,83.60
2018-06-19T23:23:02.706Z,83.20
2018-06-19T23:27:58.875Z,83.50
2018-06-19T23:30:27.105Z,83.60
2018-06-19T23:32:55.405Z,83.80
2018-06-19T23:35:23.724Z,83.90
2018-06-19T23:37:51.953Z,84.00
2018-06-19T23:40:20.212Z,84.10
2018-06-19T23:42:48.500Z,84.40
2018-06-19T23:45:16.727Z,84.50
2018-06-19T23:47:44.992Z,84.60
2018-06-19T23:50:13.235Z,84.80
2018-06-19T23:52:41.548Z,84.90
2018-06-19T23:57:37.848Z,85.10
